Time;durP1;ratioP1;P1;durP2;ratioP2;P2;SDS_P1;SDS_P2;PMS_P1;PMS_P2;Temp;Humidity;BMP_temperature;BMP_pressure;BME280_temperature;BME280_humidity;BME280_pressure;Samples;Min_cycle;Max_cycle;Signal;HPM_P1;HPM_P2
2022/08/10 00:03:40;;;;;;;3.10;1.90;;;24.80;51.60;;;;;;221118;1265;22619;-59
2022/08/10 00:08:43;;;;;;;2.40;1.90;;;24.80;51.50;;;;;;221129;1265;22783;-60
2022/08/10 00:13:45;;;;;;;2.70;1.90;;;24.80;51.60;;;;;;221017;1265;26600;-62
2022/08/10 00:18:48;;;;;;;3.10;1.90;;;24.80;52.00;;;;;;220983;1265;24357;-59
2022/08/10 00:23:50;;;;;;;2.70;1.80;;;24.80;51.80;;;;;;221286;1262;22549;-60
2022/08/10 00:28:52;;;;;;;3.60;1.90;;;24.80;51.40;;;;;;221311;1262;22534;-60
2022/08/10 00:33:54;;;;;;;2.70;1.70;;;24.80;51.50;;;;;;221214;1262;24414;-61
2022/08/10 00:38:57;;;;;;;3.20;1.90;;;24.70;51.40;;;;;;221035;1262;22707;-66
2022/08/10 00:43:59;;;;;;;2.90;1.90;;;24.70;51.40;;;;;;221131;1265;22551;-62
2022/08/10 00:49:01;;;;;;;3.30;2.00;;;24.70;51.50;;;;;;221234;1262;24271;-60
2022/08/10 00:54:05;;;;;;;2.70;1.70;;;24.70;51.40;;;;;;221204;1265;22544;-62
2022/08/10 00:59:07;;;;;;;3.50;2.10;;;24.70;51.40;;;;;;221278;1262;24063;-60
2022/08/10 01:04:09;;;;;;;2.80;1.70;;;24.70;51.80;;;;;;221330;1262;22679;-60
2022/08/10 01:09:46;;;;;;;2.80;1.70;;;24.70;51.40;;;;;;221599;1262;25630;-61
2022/08/10 01:15:07;;;;;;;2.30;1.80;;;24.70;51.40;;;;;;221727;1262;24357;-61
2022/08/10 01:20:21;;;;;;;;;;;24.70;51.50;;;;;;221336;1262;22514;-61
2022/08/10 01:25:38;;;;;;;2.60;1.70;;;24.70;51.30;;;;;;221624;1261;25234;-61
2022/08/10 01:31:03;;;;;;;2.80;1.80;;;24.70;51.40;;;;;;221257;1263;22606;-61
2022/08/10 01:36:13;;;;;;;2.50;1.70;;;24.70;51.80;;;;;;221670;1262;22817;-64
2022/08/10 01:41:23;;;;;;;2.60;1.90;;;24.60;51.50;;;;;;221529;1262;24305;-62
2022/08/10 01:46:28;;;;;;;2.50;1.80;;;24.70;51.50;;;;;;221387;1265;22549;-61
2022/08/10 01:51:39;;;;;;;3.00;1.80;;;24.60;51.00;;;;;;221123;1265;22665;-61
2022/08/10 01:56:44;;;;;;;3.60;2.00;;;24.60;51.50;;;;;;221211;1262;25453;-60
2022/08/10 02:01:50;;;;;;;2.70;1.90;;;24.60;51.50;;;;;;221360;1263;24185;-61
2022/08/10 02:06:54;;;;;;;2.50;1.60;;;24.60;51.50;;;;;;221783;1261;23945;-60
2022/08/10 02:12:07;;;;;;;3.00;1.80;;;24.60;51.50;;;;;;221478;1262;22550;-61
2022/08/10 02:17:14;;;;;;;2.60;1.80;;;24.60;51.50;;;;;;221433;1262;25588;-61
2022/08/10 02:22:38;;;;;;;3.50;2.00;;;24.60;51.60;;;;;;221654;1262;22530;-61
2022/08/10 02:27:42;;;;;;;2.50;1.80;;;24.50;51.50;;;;;;221340;1262;22567;-61
2022/08/10 02:32:47;;;;;;;3.20;1.90;;;24.60;51.60;;;;;;221408;1262;22661;-61
2022/08/10 02:38:01;;;;;;;3.10;1.80;;;24.50;51.60;;;;;;221423;1262;22509;-62
2022/08/10 02:43:33;;;;;;;3.20;2.00;;;24.60;51.60;;;;;;221374;1263;22528;-61
2022/08/10 02:49:04;;;;;;;3.00;1.90;;;24.50;51.60;;;;;;221149;1265;25235;-60
2022/08/10 02:54:11;;;;;;;4.10;2.30;;;24.50;51.60;;;;;;221234;1262;22543;-60
2022/08/10 02:59:18;;;;;;;3.60;2.00;;;24.50;51.60;;;;;;221368;1262;22798;-62
2022/08/10 03:04:24;;;;;;;3.80;2.00;;;24.50;51.70;;;;;;221417;1261;26471;-61
2022/08/10 03:09:49;;;;;;;4.20;2.20;;;24.50;51.80;;;;;;221592;1262;22544;-60
2022/08/10 03:14:52;;;;;;;3.20;1.90;;;24.50;51.70;;;;;;221588;1262;23147;-61
2022/08/10 03:19:57;;;;;;;3.20;1.80;;;24.50;51.70;;;;;;221737;1262;24386;-60
2022/08/10 03:25:22;;;;;;;2.20;1.60;;;24.40;52.00;;;;;;221480;1262;23931;-59
2022/08/10 03:30:25;;;;;;;2.50;1.70;;;24.40;52.00;;;;;;221227;1265;22684;-64
2022/08/10 03:35:35;;;;;;;;;;;24.40;51.70;;;;;;221551;1262;24303;-60
2022/08/10 03:40:38;;;;;;;2.90;2.00;;;24.40;51.70;;;;;;221244;1262;24243;-61
2022/08/10 03:45:49;;;;;;;;;;;24.40;52.10;;;;;;221002;1262;22517;-61
2022/08/10 03:50:58;;;;;;;3.40;1.90;;;24.40;51.70;;;;;;221818;1262;24069;-61
2022/08/10 03:56:02;;;;;;;2.70;1.70;;;24.40;52.10;;;;;;221325;1262;22623;-60
2022/08/10 04:01:25;;;;;;;3.20;1.80;;;24.30;51.70;;;;;;221505;1262;22528;-61
2022/08/10 04:06:49;;;;;;;3.00;1.90;;;24.30;51.70;;;;;;221443;1262;25237;-60
2022/08/10 04:11:55;;;;;;;2.60;1.60;;;24.40;51.40;;;;;;221436;1262;22674;-60
2022/08/10 04:17:01;;;;;;;2.90;2.00;;;24.30;51.80;;;;;;221587;1262;25406;-61
2022/08/10 04:22:09;;;;;;;3.20;1.90;;;24.30;52.10;;;;;;221306;1262;24372;-61
2022/08/10 04:27:12;;;;;;;2.50;1.80;;;24.30;51.80;;;;;;221529;1262;22628;-61
2022/08/10 04:32:18;;;;;;;3.30;1.90;;;24.30;51.80;;;;;;221257;1262;22611;-64
2022/08/10 04:37:22;;;;;;;2.90;1.70;;;24.30;51.80;;;;;;221442;1261;24214;-60
2022/08/10 04:42:24;;;;;;;3.20;2.10;;;24.30;51.80;;;;;;221603;1262;25299;-61
2022/08/10 04:47:26;;;;;;;2.40;1.50;;;24.30;52.20;;;;;;221509;1262;22687;-61
2022/08/10 04:52:49;;;;;;;3.00;2.00;;;24.30;51.80;;;;;;220272;1262;1238384;-63
2022/08/10 04:57:51;;;;;;;3.20;1.90;;;24.30;51.80;;;;;;221348;1262;25832;-62
2022/08/10 05:02:53;;;;;;;2.60;1.70;;;24.30;51.80;;;;;;221122;1261;25350;-61
2022/08/10 05:07:55;;;;;;;2.90;1.90;;;24.30;51.80;;;;;;221143;1265;25236;-60
2022/08/10 05:12:58;;;;;;;2.30;1.70;;;24.30;51.80;;;;;;221244;1265;24350;-61
2022/08/10 05:18:02;;;;;;;2.70;2.20;;;24.30;51.80;;;;;;221133;1265;22537;-62
2022/08/10 05:23:13;;;;;;;3.20;1.90;;;24.30;51.90;;;;;;221225;1265;24245;-61
2022/08/10 05:28:16;;;;;;;2.90;1.80;;;24.30;51.80;;;;;;221285;1265;24303;-61
2022/08/10 05:33:18;;;;;;;3.00;2.00;;;24.30;51.80;;;;;;221068;1262;22691;-61
2022/08/10 05:38:22;;;;;;;3.00;1.80;;;24.30;51.80;;;;;;220969;1265;22538;-61
2022/08/10 05:43:25;;;;;;;2.90;1.70;;;24.30;51.80;;;;;;221360;1265;22539;-64
2022/08/10 05:48:28;;;;;;;3.50;1.80;;;24.30;51.80;;;;;;221101;1265;25357;-60
2022/08/10 05:53:52;;;;;;;2.60;1.70;;;24.30;51.70;;;;;;221102;1265;24318;-61
2022/08/10 05:59:07;;;;;;;3.10;2.00;;;24.30;52.00;;;;;;220943;1265;25483;-64
2022/08/10 06:04:17;;;;;;;2.60;1.70;;;24.30;51.60;;;;;;221427;1265;22522;-61
2022/08/10 06:09:21;;;;;;;2.60;1.80;;;24.40;51.60;;;;;;221494;1265;22553;-62
2022/08/10 06:19:59;;;;;;;2.00;1.50;;;24.40;51.60;;;;;;221159;1262;24218;-64
2022/08/10 06:25:02;;;;;;;2.40;1.70;;;24.40;51.50;;;;;;221616;1262;25314;-59
2022/08/10 06:30:27;;;;;;;2.30;1.60;;;24.40;51.80;;;;;;221659;1263;24272;-61
2022/08/10 06:35:33;;;;;;;2.80;1.80;;;24.40;51.40;;;;;;221445;1263;24195;-60
2022/08/10 06:40:39;;;;;;;3.10;2.10;;;24.50;51.40;;;;;;221209;1265;22485;-61
2022/08/10 06:45:49;;;;;;;2.70;1.80;;;24.50;51.50;;;;;;220880;1264;24269;-61
2022/08/10 06:51:19;;;;;;;2.60;1.80;;;24.50;51.40;;;;;;221190;1262;24211;-60
2022/08/10 06:56:23;;;;;;;2.50;1.80;;;24.50;51.40;;;;;;221298;1262;25283;-60
2022/08/10 07:01:44;;;;;;;2.80;1.90;;;24.50;51.40;;;;;;221633;1262;22543;-61
2022/08/10 07:06:55;;;;;;;2.80;2.10;;;24.50;51.30;;;;;;221621;1262;24236;-61
2022/08/10 07:11:58;;;;;;;2.70;1.80;;;24.50;51.30;;;;;;221130;1265;22552;-61
2022/08/10 07:17:18;;;;;;;4.70;3.50;;;24.50;51.30;;;;;;221409;1262;22648;-61
2022/08/10 07:22:26;;;;;;;5.20;2.90;;;24.50;51.80;;;;;;220869;1265;24293;-62
2022/08/10 07:27:52;;;;;;;8.00;2.70;;;24.60;51.90;;;;;;221393;1262;22554;-62
2022/08/10 07:33:04;;;;;;;3.90;2.50;;;24.70;52.50;;;;;;220977;1265;22556;-61
2022/08/10 07:38:12;;;;;;;3.70;2.20;;;24.70;53.00;;;;;;221259;1265;25271;-61
2022/08/10 07:43:16;;;;;;;2.60;2.10;;;24.70;52.90;;;;;;221137;1265;22525;-60
2022/08/10 07:48:25;;;;;;;4.80;2.40;;;24.70;53.10;;;;;;221347;1262;23906;-60
2022/08/10 07:53:41;;;;;;;3.40;2.00;;;24.80;52.80;;;;;;221300;1262;24264;-61
2022/08/10 07:58:48;;;;;;;3.60;2.60;;;24.80;52.70;;;;;;221257;1262;25244;-61
2022/08/10 08:03:55;;;;;;;3.30;2.20;;;24.80;52.50;;;;;;221373;1264;22754;-61
2022/08/10 08:09:17;;;;;;;5.50;2.30;;;24.80;52.50;;;;;;221304;1265;23024;-61
2022/08/10 08:14:21;;;;;;;4.60;2.20;;;24.80;52.80;;;;;;221243;1265;22675;-60
2022/08/10 08:19:26;;;;;;;4.50;2.20;;;24.90;52.50;;;;;;221051;1262;22535;-60
2022/08/10 08:24:40;;;;;;;4.50;2.50;;;24.80;52.30;;;;;;220872;1262;23845;-61
2022/08/10 08:29:49;;;;;;;3.40;1.90;;;24.80;52.30;;;;;;221016;1263;22532;-60
2022/08/10 08:35:03;;;;;;;4.40;2.30;;;24.90;52.40;;;;;;221595;1266;25282;-61
2022/08/10 08:40:14;;;;;;;3.90;2.20;;;24.90;52.30;;;;;;221063;1265;22560;-60
2022/08/10 08:45:41;;;;;;;4.30;2.10;;;24.90;52.20;;;;;;221486;1265;22695;-63
2022/08/10 08:51:09;;;;;;;3.40;2.50;;;25.00;52.10;;;;;;221481;1265;28944;-61
2022/08/10 08:56:30;;;;;;;2.80;2.00;;;25.00;52.00;;;;;;221747;1262;22569;-60
2022/08/10 09:01:56;;;;;;;5.90;2.40;;;25.10;52.10;;;;;;220988;1265;22704;-61
2022/08/10 09:07:40;;;;;;;3.70;2.30;;;25.00;52.10;;;;;;221286;1266;24409;-60
2022/08/10 09:13:15;;;;;;;3.00;2.20;;;25.10;52.20;;;;;;221189;1265;22528;-61
2022/08/10 09:18:32;;;;;;;3.40;2.20;;;25.10;52.10;;;;;;221289;1265;25506;-61
2022/08/10 09:23:54;;;;;;;4.10;2.30;;;25.10;52.50;;;;;;221361;1262;22691;-59
2022/08/10 09:29:13;;;;;;;4.90;2.20;;;25.10;52.00;;;;;;221080;1265;26474;-61
2022/08/10 09:34:32;;;;;;;3.80;2.30;;;25.20;52.30;;;;;;221598;1262;25295;-61
2022/08/10 09:40:16;;;;;;;4.50;2.60;;;25.20;52.10;;;;;;221519;1265;22534;-61
2022/08/10 09:46:13;;;;;;;3.30;2.00;;;25.30;51.80;;;;;;221427;1262;24212;-60
2022/08/10 09:51:48;;;;;;;3.70;2.40;;;25.30;51.70;;;;;;221157;1262;22545;-62
2022/08/10 09:57:01;;;;;;;4.00;2.30;;;25.30;51.70;;;;;;221491;1262;23909;-61
2022/08/10 10:02:37;;;;;;;3.40;2.20;;;25.40;52.00;;;;;;221646;1262;22553;-60
2022/08/10 10:07:47;;;;;;;3.90;2.10;;;25.40;51.60;;;;;;221135;1262;23900;-61
2022/08/10 10:13:02;;;;;;;3.80;2.20;;;25.40;51.90;;;;;;221413;1262;22532;-61
2022/08/10 10:18:07;;;;;;;4.30;1.90;;;25.40;51.60;;;;;;221409;1262;24102;-60
2022/08/10 10:23:31;;;;;;;3.80;2.00;;;25.40;51.80;;;;;;221802;1264;22529;-57
2022/08/10 10:28:45;;;;;;;3.10;2.00;;;25.50;51.60;;;;;;221456;1261;24277;-63
2022/08/10 10:34:34;;;;;;;3.80;2.30;;;25.50;51.50;;;;;;221182;1265;24475;-59
2022/08/10 10:39:43;;;;;;;3.20;2.00;;;25.60;51.50;;;;;;221401;1262;22519;-61
2022/08/10 10:44:58;;;;;;;2.70;2.00;;;25.60;51.60;;;;;;221213;1262;22582;-60
2022/08/10 10:50:14;;;;;;;3.60;2.20;;;25.40;52.60;;;;;;221252;1265;25473;-61
2022/08/10 10:55:55;;;;;;;3.00;1.90;;;25.20;52.30;;;;;;221028;1265;22560;-59
2022/08/10 11:01:20;;;;;;;3.50;2.10;;;25.30;51.40;;;;;;220919;1265;24243;-59
2022/08/10 11:06:37;;;;;;;2.70;2.00;;;25.20;53.60;;;;;;220992;1265;22550;-59
2022/08/10 11:11:45;;;;;;;2.90;2.00;;;25.10;52.40;;;;;;221187;1265;22546;-60
2022/08/10 11:17:41;;;;;;;3.10;2.10;;;25.20;52.50;;;;;;221172;1265;22538;-60
2022/08/10 11:23:01;;;;;;;3.60;1.90;;;25.10;54.50;;;;;;221124;1265;22618;-61
2022/08/10 11:28:17;;;;;;;2.70;2.20;;;25.10;51.40;;;;;;221386;1267;25451;-61
2022/08/10 11:33:42;;;;;;;3.60;2.30;;;25.10;53.90;;;;;;221207;1265;24816;-58
2022/08/10 11:39:35;;;;;;;3.00;2.10;;;25.00;54.20;;;;;;221052;1262;22540;-61
2022/08/10 11:44:58;;;;;;;3.20;2.00;;;25.10;52.40;;;;;;221077;1265;22547;-59
2022/08/10 11:50:05;;;;;;;;;;;25.00;54.40;;;;;;220797;1265;22594;-60
2022/08/10 11:55:20;;;;;;;3.00;1.90;;;25.00;51.10;;;;;;221000;1265;24379;-61
2022/08/10 12:00:26;;;;;;;3.50;2.00;;;25.10;54.10;;;;;;221496;1265;22658;-59
2022/08/10 12:05:39;;;;;;;2.90;1.90;;;24.90;52.60;;;;;;221283;1265;24510;-62
2022/08/10 12:10:57;;;;;;;2.80;2.00;;;25.00;53.90;;;;;;221071;1265;22575;-58
2022/08/10 12:16:05;;;;;;;2.90;2.00;;;24.90;53.20;;;;;;221337;1265;24300;-59
2022/08/10 12:21:15;;;;;;;3.80;2.00;;;25.00;54.00;;;;;;221429;1265;24055;-59
2022/08/10 12:26:41;;;;;;;3.50;1.80;;;24.90;53.10;;;;;;221492;1265;22690;-60
2022/08/10 12:32:04;;;;;;;3.10;2.10;;;25.00;53.80;;;;;;221134;1261;25433;-60
2022/08/10 12:37:16;;;;;;;2.80;1.80;;;24.90;53.40;;;;;;221302;1262;24250;-61
2022/08/10 12:42:32;;;;;;;3.40;2.10;;;25.10;54.00;;;;;;221407;1261;25466;-60
2022/08/10 12:48:02;;;;;;;3.00;2.20;;;24.90;54.50;;;;;;221530;1265;25315;-61
2022/08/10 12:53:32;;;;;;;3.70;1.90;;;25.10;54.00;;;;;;221367;1261;22557;-62
2022/08/10 12:58:40;;;;;;;3.30;2.20;;;24.90;54.60;;;;;;221555;1265;23051;-61
2022/08/10 13:04:15;;;;;;;5.80;2.40;;;25.10;53.60;;;;;;221363;1261;24400;-60
2022/08/10 13:09:26;;;;;;;3.00;2.00;;;24.90;52.50;;;;;;221248;1261;22713;-59
2022/08/10 13:14:45;;;;;;;2.40;1.80;;;25.10;52.00;;;;;;221464;1262;22544;-59
2022/08/10 13:19:50;;;;;;;3.20;2.00;;;25.30;51.70;;;;;;221595;1262;24280;-59
2022/08/10 13:25:04;;;;;;;4.60;2.00;;;25.40;51.50;;;;;;221280;1261;22679;-59
2022/08/10 13:30:07;;;;;;;3.40;2.40;;;25.50;51.30;;;;;;221585;1262;22552;-60
2022/08/10 13:35:18;;;;;;;3.00;1.80;;;25.50;51.10;;;;;;221677;1265;23940;-61
2022/08/10 13:40:23;;;;;;;3.20;2.00;;;25.60;51.50;;;;;;221798;1262;24237;-60
2022/08/10 13:45:26;;;;;;;2.70;2.00;;;25.60;51.20;;;;;;221679;1261;24208;-61
2022/08/10 13:50:29;;;;;;;2.50;1.80;;;25.60;51.20;;;;;;221581;1262;24415;-60
2022/08/10 13:55:54;;;;;;;3.40;1.90;;;25.60;51.20;;;;;;221132;1262;22556;-61
2022/08/10 14:01:01;;;;;;;3.50;2.10;;;25.70;51.20;;;;;;221344;1262;25303;-62
2022/08/10 14:06:08;;;;;;;2.70;1.80;;;25.70;51.20;;;;;;221543;1261;24353;-61
2022/08/10 14:11:15;;;;;;;15.00;3.50;;;25.70;50.90;;;;;;221525;1261;22528;-61
2022/08/10 14:16:18;;;;;;;8.30;2.70;;;25.70;54.10;;;;;;221460;1262;24337;-63
2022/08/10 14:21:21;;;;;;;10.20;2.40;;;25.80;54.20;;;;;;221389;1262;25349;-61
2022/08/10 14:26:28;;;;;;;6.60;2.70;;;25.90;53.60;;;;;;221434;1262;22531;-59
2022/08/10 14:31:33;;;;;;;13.40;2.70;;;25.90;53.60;;;;;;221458;1261;22564;-59
2022/08/10 14:36:35;;;;;;;8.40;2.40;;;25.90;53.10;;;;;;221651;1262;22532;-60
2022/08/10 14:41:39;;;;;;;8.30;2.80;;;25.90;53.70;;;;;;221508;1262;25359;-61
2022/08/10 14:47:04;;;;;;;5.90;2.80;;;25.90;53.10;;;;;;221465;1265;22700;-60
2022/08/10 14:52:28;;;;;;;10.10;2.70;;;25.90;53.30;;;;;;221139;1265;22593;-60
2022/08/10 14:57:37;;;;;;;6.30;3.20;;;25.90;53.30;;;;;;221078;1263;26548;-61
2022/08/10 15:03:02;;;;;;;4.50;2.90;;;25.90;53.60;;;;;;221314;1261;25336;-61
2022/08/10 15:08:24;;;;;;;5.80;2.30;;;25.90;53.10;;;;;;221822;1262;22550;-61
2022/08/10 15:13:32;;;;;;;8.20;3.10;;;25.90;53.00;;;;;;221278;1264;24287;-61
2022/08/10 15:18:46;;;;;;;6.70;2.60;;;25.90;53.00;;;;;;220949;1265;22544;-62
2022/08/10 15:24:04;;;;;;;7.00;2.50;;;25.90;53.10;;;;;;221184;1262;22768;-60
2022/08/10 15:29:20;;;;;;;8.50;3.20;;;25.90;53.30;;;;;;221657;1262;25244;-59
2022/08/10 15:40:13;;;;;;;6.20;2.70;;;25.90;52.50;;;;;;221277;1265;22539;-63
2022/08/10 15:45:39;;;;;;;4.70;2.20;;;25.90;52.50;;;;;;221428;1265;24418;-62
2022/08/10 15:50:48;;;;;;;5.50;2.80;;;25.90;52.40;;;;;;221044;1265;22749;-60
2022/08/10 15:55:57;;;;;;;5.10;2.60;;;25.90;52.30;;;;;;221328;1263;22554;-60
2022/08/10 16:01:32;;;;;;;4.40;2.50;;;25.90;52.00;;;;;;221538;1262;22634;-61
2022/08/10 16:07:05;;;;;;;4.50;2.30;;;25.90;52.10;;;;;;220793;1265;25442;-61
2022/08/10 16:12:39;;;;;;;10.50;3.50;;;25.90;52.00;;;;;;221442;1265;25236;-61
2022/08/10 16:17:58;;;;;;;5.40;2.70;;;25.80;52.00;;;;;;221296;1262;22926;-59
2022/08/10 16:23:10;;;;;;;5.60;2.50;;;25.80;52.20;;;;;;221337;1262;22710;-62
2022/08/10 16:28:14;;;;;;;7.40;2.60;;;25.80;51.80;;;;;;221076;1265;24875;-61
2022/08/10 16:33:32;;;;;;;4.00;2.30;;;25.80;51.80;;;;;;221270;1262;23937;-60
2022/08/10 16:38:57;;;;;;;4.70;2.60;;;25.90;52.10;;;;;;221291;1262;22539;-61
2022/08/10 16:44:02;;;;;;;6.20;2.60;;;25.90;51.70;;;;;;221519;1262;24283;-62
2022/08/10 16:49:07;;;;;;;5.40;2.80;;;25.80;51.60;;;;;;221407;1262;25244;-61
2022/08/10 16:54:10;;;;;;;5.00;2.70;;;25.80;51.60;;;;;;220590;1261;1314639;-62
2022/08/10 16:59:17;;;;;;;4.00;2.50;;;25.80;51.60;;;;;;221417;1261;22566;-59
2022/08/10 17:04:26;;;;;;;3.90;2.40;;;25.80;51.70;;;;;;221668;1261;22543;-61
2022/08/10 17:09:31;;;;;;;5.80;3.00;;;25.80;51.60;;;;;;221588;1262;24206;-61
2022/08/10 17:14:37;;;;;;;4.30;2.80;;;25.80;51.50;;;;;;221529;1262;22541;-60
2022/08/10 17:19:46;;;;;;;3.80;2.80;;;25.80;51.60;;;;;;221638;1261;23473;-60
2022/08/10 17:24:53;;;;;;;3.60;2.40;;;25.80;51.50;;;;;;221334;1261;22609;-60
2022/08/10 17:29:58;;;;;;;3.50;2.50;;;25.80;51.70;;;;;;221514;1262;22695;-61
2022/08/10 17:35:13;;;;;;;3.60;2.30;;;25.80;51.20;;;;;;221441;1261;25231;-61
2022/08/10 17:40:20;;;;;;;4.80;2.50;;;25.80;51.30;;;;;;221611;1262;22675;-60
2022/08/10 17:45:27;;;;;;;2.70;2.30;;;25.80;51.20;;;;;;221200;1261;22543;-60
2022/08/10 17:50:51;;;;;;;4.50;2.10;;;25.80;51.20;;;;;;221591;1262;22592;-59
2022/08/10 17:55:56;;;;;;;5.80;2.40;;;25.80;51.20;;;;;;221849;1262;22613;-60
2022/08/10 18:01:02;;;;;;;4.10;2.10;;;25.70;51.10;;;;;;221700;1261;22752;-61
2022/08/10 18:06:26;;;;;;;3.40;2.40;;;25.80;51.20;;;;;;221591;1262;24408;-63
2022/08/10 18:11:33;;;;;;;4.30;2.10;;;25.80;51.30;;;;;;221373;1262;24380;-61
2022/08/10 18:16:37;;;;;;;4.50;2.40;;;25.80;51.30;;;;;;221207;1261;22792;-61
2022/08/10 18:21:47;;;;;;;4.50;2.50;;;25.80;51.30;;;;;;221337;1261;22529;-62
2022/08/10 18:26:52;;;;;;;3.30;2.30;;;25.80;51.30;;;;;;221294;1262;24054;-60
2022/08/10 18:31:58;;;;;;;3.70;2.30;;;25.70;51.60;;;;;;220985;1265;25251;-61
2022/08/10 18:37:04;;;;;;;2.70;2.00;;;25.70;51.40;;;;;;221387;1262;24208;-61
2022/08/10 18:42:20;;;;;;;4.20;2.10;;;25.70;51.50;;;;;;221498;1262;25302;-61
2022/08/10 18:48:07;;;;;;;3.20;2.00;;;25.70;51.60;;;;;;221150;1265;22532;-61
2022/08/10 18:53:18;;;;;;;3.20;2.20;;;25.70;51.50;;;;;;220965;1264;22547;-61
2022/08/10 18:58:55;;;;;;;2.80;2.10;;;25.70;51.60;;;;;;221233;1265;25231;-59
2022/08/10 19:04:33;;;;;;;2.80;1.90;;;25.70;51.80;;;;;;221394;1261;24242;-60
2022/08/10 19:10:02;;;;;;;3.20;2.00;;;25.70;51.90;;;;;;221616;1262;22518;-59
2022/08/10 19:15:41;;;;;;;3.00;2.20;;;25.70;51.80;;;;;;221393;1262;23066;-61
2022/08/10 19:21:07;;;;;;;2.90;2.20;;;25.60;51.80;;;;;;221687;1262;25470;-60
2022/08/10 19:26:34;;;;;;;6.10;2.70;;;25.70;52.30;;;;;;221439;1262;24407;-60
2022/08/10 19:32:03;;;;;;;3.00;2.00;;;25.60;52.00;;;;;;221431;1262;24400;-60
2022/08/10 19:37:29;;;;;;;3.00;2.10;;;25.60;52.30;;;;;;221738;1261;24379;-61
2022/08/10 19:42:43;;;;;;;3.80;2.00;;;25.60;52.00;;;;;;221558;1261;22544;-60
2022/08/10 19:47:58;;;;;;;3.50;2.20;;;25.60;52.00;;;;;;221582;1262;22541;-61
2022/08/10 19:53:07;;;;;;;3.50;2.10;;;25.60;52.60;;;;;;220967;1265;22540;-60
2022/08/10 19:58:23;;;;;;;3.60;2.40;;;25.60;52.00;;;;;;221138;1262;26455;-61
2022/08/10 20:04:14;;;;;;;3.70;2.00;;;25.60;52.60;;;;;;221489;1262;22542;-60
2022/08/10 20:09:54;;;;;;;3.40;2.20;;;25.60;52.10;;;;;;220777;1262;22554;-61
2022/08/10 20:15:19;;;;;;;3.20;2.20;;;25.50;52.30;;;;;;221659;1262;22528;-60
2022/08/10 20:20:43;;;;;;;3.50;2.30;;;25.50;52.10;;;;;;221722;1262;22696;-61
2022/08/10 20:26:06;;;;;;;3.70;2.40;;;25.50;52.10;;;;;;221578;1262;22534;-61
2022/08/10 20:31:21;;;;;;;4.60;2.60;;;25.50;52.10;;;;;;221245;1262;25350;-60
2022/08/10 20:36:42;;;;;;;4.00;2.30;;;25.50;52.50;;;;;;221545;1261;22695;-61
2022/08/10 20:42:28;;;;;;;4.70;2.60;;;25.50;52.10;;;;;;221604;1262;24289;-60
2022/08/10 20:47:50;;;;;;;3.20;1.90;;;25.50;52.20;;;;;;221589;1262;23984;-61
2022/08/10 20:53:26;;;;;;;4.50;1.90;;;25.50;52.60;;;;;;221549;1261;25300;-61
2022/08/10 20:58:59;;;;;;;2.60;2.10;;;25.40;52.10;;;;;;221583;1262;22750;-61
2022/08/10 21:04:58;;;;;;;2.90;2.20;;;25.50;52.70;;;;;;221167;1262;22691;-61
2022/08/10 21:10:06;;;;;;;4.70;2.50;;;25.50;52.20;;;;;;220963;1265;24243;-60
2022/08/10 21:16:01;;;;;;;3.30;2.20;;;25.40;52.20;;;;;;221218;1265;22544;-62
2022/08/10 21:21:42;;;;;;;3.40;2.20;;;25.40;52.30;;;;;;221002;1262;22553;-60
2022/08/10 23:01:41;;;;;;;3.80;2.40;;;25.20;52.80;;;;;;221582;1261;24303;-59
2022/08/10 23:07:12;;;;;;;3.70;2.50;;;25.20;52.10;;;;;;221455;1262;22806;-59
2022/08/10 23:12:40;;;;;;;3.10;2.20;;;25.20;52.50;;;;;;221514;1262;22523;-60
2022/08/10 23:23:24;;;;;;;3.10;2.30;;;25.20;52.50;;;;;;221281;1262;22538;-60
2022/08/10 23:28:35;;;;;;;4.20;2.50;;;25.20;52.20;;;;;;221294;1262;22552;-60
2022/08/10 23:34:01;;;;;;;4.30;2.00;;;25.20;52.20;;;;;;221543;1262;25350;-61
2022/08/10 23:39:08;;;;;;;3.10;2.10;;;25.20;52.20;;;;;;221574;1262;22641;-61
2022/08/10 23:44:46;;;;;;;2.40;1.80;;;25.20;52.50;;;;;;221436;1262;22527;-60
2022/08/10 23:49:53;;;;;;;;;;;25.20;52.30;;;;;;221084;1265;25342;-60
2022/08/10 23:55:06;;;;;;;3.00;2.00;;;25.20;52.80;;;;;;221423;1262;22525;-61
